Time;durP1;ratioP1;P1;durP2;ratioP2;P2;SDS_P1;SDS_P2;PMS_P1;PMS_P2;Temp;Humidity;BMP_temperature;BMP_pressure;BME280_temperature;BME280_humidity;BME280_pressure;Samples;Min_cycle;Max_cycle;Signal;HPM_P1;HPM_P2
2022/12/25 00:00:11;;;;;;;74.00;24.77;;;5.80;99.90;;;;;;4937667;29;20051;-76
2022/12/25 00:02:38;;;;;;;76.63;24.70;;;5.90;99.90;;;;;;4937440;29;20055;-77
2022/12/25 00:05:05;;;;;;;70.18;22.65;;;5.90;99.90;;;;;;4954352;28;20036;-75
2022/12/25 00:07:31;;;;;;;73.57;23.60;;;5.90;99.90;;;;;;4936514;29;20043;-77
2022/12/25 00:09:57;;;;;;;77.97;23.73;;;6.00;99.90;;;;;;4937731;29;21889;-78
2022/12/25 00:12:23;;;;;;;71.90;24.23;;;6.10;99.90;;;;;;4947970;29;20125;-77
2022/12/25 00:14:48;;;;;;;72.35;23.27;;;6.10;99.90;;;;;;4926628;28;20131;-77
2022/12/25 00:17:15;;;;;;;74.20;24.65;;;6.10;99.90;;;;;;4937331;29;20411;-76
2022/12/25 00:19:40;;;;;;;78.43;24.88;;;6.20;99.90;;;;;;4937161;29;20043;-76
2022/12/25 00:22:06;;;;;;;86.03;26.90;;;6.20;99.90;;;;;;4920568;29;20439;-77
2022/12/25 00:24:32;;;;;;;79.55;25.60;;;6.20;99.90;;;;;;4937998;29;20389;-76
2022/12/25 00:26:58;;;;;;;83.03;27.27;;;6.20;99.90;;;;;;4939695;28;20070;-77
2022/12/25 00:29:23;;;;;;;77.30;27.15;;;6.30;99.90;;;;;;4940717;29;20122;-76
2022/12/25 00:31:49;;;;;;;80.95;27.27;;;6.20;99.90;;;;;;4940484;29;20051;-77
2022/12/25 00:34:15;;;;;;;70.55;24.23;;;6.20;99.90;;;;;;4924662;29;20049;-77
2022/12/25 00:36:41;;;;;;;81.60;26.10;;;6.10;99.90;;;;;;4940794;29;20539;-77
2022/12/25 00:39:06;;;;;;;82.15;26.17;;;6.10;99.90;;;;;;4923991;28;20079;-77
2022/12/25 00:44:16;;;;;;;72.50;25.55;;;6.00;99.90;;;;;;4931409;29;20050;-76
2022/12/25 00:46:42;;;;;;;89.65;25.60;;;6.00;99.90;;;;;;4924497;29;20047;-76
2022/12/25 00:49:09;;;;;;;76.68;25.58;;;6.10;99.90;;;;;;4924502;28;20047;-77
2022/12/25 00:51:35;;;;;;;87.32;27.42;;;6.00;99.90;;;;;;4940391;29;20417;-77
2022/12/25 00:54:01;;;;;;;78.30;24.83;;;6.10;99.90;;;;;;4939482;28;20062;-76
2022/12/25 00:56:27;;;;;;;80.32;25.33;;;6.00;99.90;;;;;;4943268;28;20399;-77
2022/12/25 00:58:54;;;;;;;71.47;24.00;;;6.00;99.90;;;;;;4940219;29;20054;-76
2022/12/25 01:01:19;;;;;;;79.03;25.00;;;6.00;99.90;;;;;;4939838;29;20091;-77
2022/12/25 01:03:45;;;;;;;76.38;24.02;;;6.10;99.90;;;;;;4939923;29;20087;-76
2022/12/25 01:06:12;;;;;;;74.70;24.38;;;6.10;99.90;;;;;;4939530;28;20059;-76
2022/12/25 01:10:21;;;;;;;68.35;23.73;;;6.10;99.90;;;;;;4923664;29;20158;-76
2022/12/25 01:11:25;;;;;;;72.88;23.30;;;6.10;99.90;;;;;;4950082;28;20063;-77
2022/12/25 01:13:51;;;;;;;61.42;21.75;;;6.10;99.90;;;;;;4952479;29;20065;-76
2022/12/25 01:16:17;;;;;;;78.82;23.85;;;6.10;99.90;;;;;;4921236;29;20052;-77
2022/12/25 01:18:43;;;;;;;68.32;23.55;;;6.20;99.90;;;;;;4921505;29;20055;-76
2022/12/25 01:21:10;;;;;;;72.50;24.17;;;6.10;99.90;;;;;;4939687;29;20047;-75
2022/12/25 01:23:37;;;;;;;78.15;23.45;;;6.20;99.90;;;;;;4927158;28;20088;-77
2022/12/25 01:26:08;;;;;;;68.00;22.92;;;6.10;99.90;;;;;;4939741;29;20094;-77
2022/12/25 01:28:34;;;;;;;69.35;22.48;;;6.10;99.90;;;;;;4935837;29;20090;-76
2022/12/25 01:31:00;;;;;;;78.13;24.55;;;6.10;99.90;;;;;;4936366;29;20051;-76
2022/12/25 01:33:27;;;;;;;77.10;23.77;;;6.20;99.90;;;;;;4933344;29;20056;-76
2022/12/25 01:35:53;;;;;;;73.22;23.52;;;6.20;99.90;;;;;;4935419;29;20047;-77
2022/12/25 01:38:18;;;;;;;78.80;24.95;;;6.20;99.90;;;;;;4935543;29;20055;-77
2022/12/25 01:40:44;;;;;;;74.32;25.70;;;6.20;99.90;;;;;;4920271;29;20055;-77
2022/12/25 01:43:54;;;;;;;75.50;23.60;;;6.20;99.90;;;;;;4932673;29;20040;-76
2022/12/25 01:46:20;;;;;;;73.65;24.77;;;6.20;99.90;;;;;;4918682;29;20051;-76
2022/12/25 01:48:46;;;;;;;71.57;24.42;;;6.30;99.90;;;;;;4936150;29;20050;-77
2022/12/25 01:51:29;;;;;;;72.60;25.38;;;6.30;99.90;;;;;;4935868;29;20075;-77
2022/12/25 01:53:58;;;;;;;76.13;24.88;;;6.40;99.90;;;;;;4935336;29;20114;-77
2022/12/25 01:56:26;;;;;;;71.15;24.65;;;6.40;99.90;;;;;;4935286;29;20108;-76
2022/12/25 01:58:53;;;;;;;71.47;25.10;;;6.50;99.90;;;;;;4935617;29;20111;-76
2022/12/25 02:01:18;;;;;;;78.53;24.98;;;6.60;99.90;;;;;;4936043;29;20039;-77
2022/12/25 02:03:44;;;;;;;70.40;24.73;;;6.50;99.90;;;;;;4935749;29;20055;-78
2022/12/25 02:06:10;;;;;;;66.40;23.42;;;6.60;99.90;;;;;;4934161;29;20481;-76
2022/12/25 02:08:36;;;;;;;74.75;25.05;;;6.60;99.90;;;;;;4935285;29;20075;-76
2022/12/25 02:11:02;;;;;;;62.03;23.73;;;6.60;99.90;;;;;;4936581;29;20051;-76
2022/12/25 02:13:28;;;;;;;68.18;23.85;;;6.60;99.90;;;;;;4919254;29;20078;-76
2022/12/25 02:16:14;;;;;;;66.05;24.60;;;6.70;99.90;;;;;;4935903;29;20056;-77
2022/12/25 02:18:46;;;;;;;72.30;23.85;;;6.70;99.90;;;;;;4935232;29;20051;-77
2022/12/25 02:21:20;;;;;;;66.15;23.42;;;6.70;99.90;;;;;;4935659;29;20051;-77
2022/12/25 02:24:05;;;;;;;68.00;24.00;;;6.70;99.90;;;;;;4934703;29;20051;-77
2022/12/25 02:27:01;;;;;;;68.07;24.55;;;6.70;99.90;;;;;;4937922;29;20492;-77
2022/12/25 02:29:58;;;;;;;68.97;23.65;;;6.70;99.90;;;;;;4926998;29;20059;-77
2022/12/25 02:32:37;;;;;;;56.47;21.92;;;6.70;99.90;;;;;;4938365;28;20047;-76
2022/12/25 02:35:20;;;;;;;63.42;23.13;;;6.70;99.90;;;;;;4921048;29;20055;-76
2022/12/25 02:37:51;;;;;;;69.53;24.10;;;6.80;99.90;;;;;;4924664;28;20137;-76
2022/12/25 02:40:26;;;;;;;68.50;24.58;;;6.80;99.90;;;;;;4938556;29;20047;-77
2022/12/25 03:08:15;;;;;;;62.67;23.65;;;6.90;99.90;;;;;;4925525;29;20066;-76
2022/12/25 03:13:37;;;;;;;64.40;23.30;;;7.00;99.90;;;;;;4954699;28;20093;-76
2022/12/25 03:18:49;;;;;;;55.90;22.08;;;7.00;99.90;;;;;;4952429;29;20051;-77
2022/12/25 03:26:54;;;;;;;59.33;21.70;;;7.10;99.90;;;;;;4954787;28;20070;-76
2022/12/25 03:32:27;;;;;;;55.88;20.45;;;7.20;99.90;;;;;;4936336;28;20071;-75
2022/12/25 03:35:24;;;;;;;57.80;20.88;;;7.20;99.90;;;;;;4937928;29;20054;-76
2022/12/25 03:38:51;;;;;;;52.80;20.95;;;7.20;99.90;;;;;;4937034;29;20055;-76
2022/12/25 04:37:25;;;;;;;71.03;27.50;;;7.60;99.90;;;;;;4926542;29;20603;-77
2022/12/25 04:39:51;;;;;;;62.97;26.70;;;7.70;99.90;;;;;;4924149;28;20055;-76
2022/12/25 04:42:17;;;;;;;76.53;28.55;;;7.70;99.90;;;;;;4909131;29;20046;-75
2022/12/25 04:44:42;;;;;;;71.60;29.13;;;7.70;99.90;;;;;;4937739;29;20531;-76
2022/12/25 04:47:08;;;;;;;69.10;28.73;;;7.70;99.90;;;;;;4953012;29;20040;-76
2022/12/25 04:49:34;;;;;;;70.32;28.17;;;7.80;99.90;;;;;;4940481;29;20119;-77
2022/12/25 04:51:59;;;;;;;73.57;29.08;;;7.80;99.90;;;;;;4923973;28;20098;-75
2022/12/25 04:54:25;;;;;;;74.60;29.30;;;7.80;99.90;;;;;;4940464;29;20527;-76
2022/12/25 04:56:51;;;;;;;71.22;28.17;;;7.80;99.90;;;;;;4940362;28;20134;-77
2022/12/25 04:59:16;;;;;;;68.20;27.55;;;7.90;99.90;;;;;;4940312;29;20047;-74
2022/12/25 05:01:42;;;;;;;66.43;28.40;;;7.90;99.90;;;;;;4936997;29;20135;-76
2022/12/25 05:04:08;;;;;;;61.50;27.23;;;7.90;99.90;;;;;;4936241;29;20047;-75
2022/12/25 05:06:34;;;;;;;66.15;28.38;;;8.00;99.90;;;;;;4936834;29;20512;-75
2022/12/25 05:08:59;;;;;;;70.97;28.60;;;8.00;99.90;;;;;;4949675;28;20046;-76
2022/12/25 05:11:26;;;;;;;65.03;28.27;;;8.00;99.90;;;;;;4939889;29;20403;-76
2022/12/25 05:13:52;;;;;;;64.20;28.00;;;8.00;99.90;;;;;;4939868;29;20059;-76
2022/12/25 05:16:19;;;;;;;62.75;27.15;;;8.00;99.90;;;;;;4923798;29;20054;-77
2022/12/25 05:18:48;;;;;;;65.90;27.35;;;8.00;99.90;;;;;;4939728;29;20066;-77
2022/12/25 05:21:14;;;;;;;63.83;27.65;;;8.00;99.90;;;;;;4939818;29;20507;-77
2022/12/25 05:23:47;;;;;;;67.18;27.92;;;8.00;99.90;;;;;;4948670;29;20051;-77
2022/12/25 05:26:14;;;;;;;66.38;28.35;;;8.00;99.90;;;;;;4939161;28;20047;-77
2022/12/25 05:28:40;;;;;;;71.13;28.50;;;8.00;99.90;;;;;;4939180;29;20134;-77
2022/12/25 05:31:06;;;;;;;67.22;28.80;;;8.00;99.90;;;;;;4923440;28;20063;-76
2022/12/25 05:33:32;;;;;;;63.38;28.25;;;8.00;99.90;;;;;;4939706;29;20047;-76
2022/12/25 05:36:02;;;;;;;71.28;30.15;;;8.00;99.90;;;;;;4939761;29;20542;-74
2022/12/25 05:38:28;;;;;;;68.55;28.35;;;8.10;99.90;;;;;;4935482;29;20448;-75
2022/12/25 05:40:53;;;;;;;71.90;30.30;;;8.10;99.90;;;;;;4948091;28;20046;-76
2022/12/25 05:43:19;;;;;;;67.50;29.50;;;8.10;99.90;;;;;;4935223;28;20048;-77
2022/12/25 05:45:45;;;;;;;67.40;29.52;;;8.10;99.90;;;;;;4956511;28;20134;-77
2022/12/25 05:48:10;;;;;;;67.50;29.52;;;8.10;99.90;;;;;;4956249;28;20126;-78
2022/12/25 05:50:37;;;;;;;69.85;30.63;;;8.10;99.90;;;;;;4939122;29;20480;-77
2022/12/25 05:53:04;;;;;;;67.22;30.30;;;8.10;99.90;;;;;;4938364;29;20432;-77
2022/12/25 05:55:33;;;;;;;73.82;31.60;;;8.10;99.90;;;;;;4939310;28;20129;-78
2022/12/25 05:57:59;;;;;;;72.03;30.10;;;8.10;99.90;;;;;;4938545;29;20060;-77
2022/12/25 06:00:25;;;;;;;74.57;32.47;;;8.10;99.90;;;;;;4938584;28;20063;-77
2022/12/25 06:02:51;;;;;;;83.03;32.83;;;8.10;99.90;;;;;;4939096;29;20058;-76
2022/12/25 06:05:16;;;;;;;79.88;32.83;;;8.10;99.90;;;;;;4922980;28;20384;-77
2022/12/25 06:07:42;;;;;;;76.53;32.55;;;8.20;99.90;;;;;;4955222;28;20102;-79
2022/12/25 06:10:08;;;;;;;70.10;31.50;;;8.20;99.90;;;;;;4922855;29;20455;-79
2022/12/25 06:12:34;;;;;;;74.25;32.47;;;8.30;99.90;;;;;;4922120;28;20043;-77
2022/12/25 06:14:59;;;;;;;72.97;31.73;;;8.30;99.90;;;;;;4955757;28;20058;-77
2022/12/25 06:17:25;;;;;;;73.63;32.05;;;8.30;99.90;;;;;;4922707;28;20051;-76
2022/12/25 06:19:52;;;;;;;67.38;31.20;;;8.30;99.90;;;;;;4938959;29;20055;-77
2022/12/25 06:22:18;;;;;;;69.20;32.55;;;8.30;99.90;;;;;;4936989;28;20059;-78
2022/12/25 06:24:43;;;;;;;73.55;33.60;;;8.30;99.90;;;;;;4922368;29;20047;-77
2022/12/25 06:27:09;;;;;;;72.00;33.25;;;8.40;99.90;;;;;;4922276;29;20518;-78
2022/12/25 06:29:35;;;;;;;79.38;33.33;;;8.40;99.90;;;;;;4938366;28;20126;-78
2022/12/25 06:32:01;;;;;;;62.15;31.70;;;8.40;99.90;;;;;;4938025;29;20079;-78
2022/12/25 06:34:26;;;;;;;67.38;30.90;;;8.40;99.90;;;;;;4906914;28;20462;-76
2022/12/25 06:36:53;;;;;;;68.45;31.58;;;8.40;99.90;;;;;;4938463;29;20546;-77
2022/12/25 06:39:20;;;;;;;68.45;31.98;;;8.50;99.90;;;;;;4954664;28;20047;-77
2022/12/25 06:41:46;;;;;;;68.65;29.85;;;8.50;99.90;;;;;;4922365;28;20047;-77
2022/12/25 06:44:12;;;;;;;63.75;29.45;;;8.50;99.90;;;;;;4922241;29;20130;-77
2022/12/25 06:46:38;;;;;;;67.82;30.90;;;8.50;99.90;;;;;;4937609;28;20126;-79
2022/12/25 06:49:04;;;;;;;62.05;29.33;;;8.50;99.90;;;;;;4938504;29;20059;-77
2022/12/25 06:51:31;;;;;;;66.82;30.35;;;8.50;99.90;;;;;;4959434;28;20047;-77
2022/12/25 06:53:58;;;;;;;63.40;28.45;;;8.50;99.90;;;;;;4937075;29;20043;-76
2022/12/25 06:56:26;;;;;;;66.78;29.73;;;8.50;99.90;;;;;;4935179;29;20059;-76
2022/12/25 06:58:54;;;;;;;59.17;28.60;;;8.60;99.90;;;;;;4949841;29;20062;-76
2022/12/25 07:01:29;;;;;;;54.85;28.33;;;8.50;99.90;;;;;;4938302;29;20130;-76
2022/12/25 07:04:10;;;;;;;54.47;25.98;;;8.60;99.90;;;;;;4953658;28;20055;-76
2022/12/25 07:06:36;;;;;;;46.58;23.83;;;8.60;99.90;;;;;;4938082;29;20055;-76
2022/12/25 07:09:02;;;;;;;52.35;23.98;;;8.70;99.90;;;;;;4936863;29;20054;-76
2022/12/25 07:11:27;;;;;;;49.05;23.77;;;8.70;99.90;;;;;;4922588;29;20039;-75
2022/12/25 07:13:53;;;;;;;40.90;21.88;;;8.60;99.90;;;;;;4937533;28;20129;-77
2022/12/25 07:16:19;;;;;;;46.60;22.52;;;8.60;99.90;;;;;;4937972;29;20047;-73
2022/12/25 07:18:44;;;;;;;43.20;21.83;;;8.60;99.90;;;;;;4937513;28;20058;-77
2022/12/25 07:21:17;;;;;;;41.47;21.58;;;8.60;99.90;;;;;;4937639;29;20126;-77
2022/12/25 07:23:45;;;;;;;45.20;21.08;;;8.60;99.90;;;;;;4937263;29;20047;-77
2022/12/25 07:26:11;;;;;;;39.40;20.70;;;8.60;99.90;;;;;;4936138;29;20043;-76
2022/12/25 07:28:38;;;;;;;36.90;20.25;;;8.50;99.90;;;;;;4934006;29;20695;-76
2022/12/25 07:31:11;;;;;;;42.88;21.63;;;8.50;99.90;;;;;;4934455;29;20048;-76
2022/12/25 07:33:37;;;;;;;39.95;20.38;;;8.50;99.90;;;;;;4935001;29;20051;-77
2022/12/25 07:36:04;;;;;;;42.60;20.70;;;8.50;99.90;;;;;;4938279;29;20103;-75
2022/12/25 07:38:31;;;;;;;38.67;20.85;;;8.50;99.90;;;;;;4937783;29;20123;-77
2022/12/25 07:40:56;;;;;;;40.13;21.13;;;8.50;99.90;;;;;;4922937;29;20051;-76
2022/12/25 07:43:22;;;;;;;38.60;21.52;;;8.50;99.90;;;;;;4921155;29;20430;-76
2022/12/25 07:45:56;;;;;;;40.75;22.35;;;8.50;99.90;;;;;;4938324;29;20054;-77
2022/12/25 07:48:22;;;;;;;37.38;20.83;;;8.50;99.90;;;;;;4937845;29;20055;-76
2022/12/25 07:50:48;;;;;;;38.58;19.98;;;8.50;99.90;;;;;;4939148;29;20495;-75
2022/12/25 07:53:13;;;;;;;37.10;19.75;;;8.50;99.90;;;;;;4937696;29;20056;-77
2022/12/25 07:55:39;;;;;;;40.40;20.85;;;8.50;99.90;;;;;;4938269;29;20365;-76
2022/12/25 07:58:05;;;;;;;36.60;20.15;;;8.50;99.90;;;;;;4935298;29;20056;-77
2022/12/25 08:00:31;;;;;;;38.63;19.48;;;8.50;99.90;;;;;;4921540;29;20052;-77
2022/12/25 08:02:58;;;;;;;33.05;20.23;;;8.50;99.90;;;;;;4935008;29;20056;-76
2022/12/25 08:05:24;;;;;;;36.33;18.52;;;8.50;99.90;;;;;;4936328;29;20075;-77
2022/12/25 08:07:54;;;;;;;36.30;18.65;;;8.50;99.90;;;;;;4936445;29;20476;-76
2022/12/25 08:10:20;;;;;;;35.08;19.15;;;8.60;99.90;;;;;;4927584;29;20546;-76
2022/12/25 08:12:46;;;;;;;37.10;18.63;;;8.50;99.90;;;;;;4907903;29;20048;-78
2022/12/25 08:15:12;;;;;;;34.30;18.63;;;8.50;99.90;;;;;;4938152;28;20056;-77
2022/12/25 08:17:38;;;;;;;37.60;18.63;;;8.50;99.90;;;;;;4921641;29;20424;-76
2022/12/25 08:20:04;;;;;;;35.88;18.90;;;8.50;99.90;;;;;;4926965;29;20039;-78
2022/12/25 08:22:30;;;;;;;36.40;18.30;;;8.50;99.90;;;;;;4920623;29;20048;-76
2022/12/25 08:24:56;;;;;;;33.70;17.88;;;8.50;99.90;;;;;;4920833;29;20051;-77
2022/12/25 08:27:21;;;;;;;34.47;18.45;;;8.50;99.90;;;;;;4928628;29;20396;-78
2022/12/25 08:29:47;;;;;;;33.45;18.85;;;8.50;99.90;;;;;;4934121;29;20135;-78
2022/12/25 08:32:13;;;;;;;37.25;18.20;;;8.40;99.90;;;;;;4921597;29;20043;-76
2022/12/25 08:34:38;;;;;;;32.03;18.45;;;8.50;99.90;;;;;;4939763;28;20043;-78
2022/12/25 08:37:04;;;;;;;37.35;18.90;;;8.50;99.90;;;;;;4930898;29;20460;-78
2022/12/25 08:39:30;;;;;;;32.25;19.00;;;8.50;99.90;;;;;;4930771;28;20044;-78
2022/12/25 08:41:56;;;;;;;34.33;18.95;;;8.50;99.90;;;;;;4927090;29;20078;-79
2022/12/25 08:44:21;;;;;;;39.13;19.58;;;8.40;99.90;;;;;;4930167;29;20056;-79
2022/12/25 08:46:47;;;;;;;31.67;18.52;;;8.40;99.90;;;;;;4931423;28;20051;-78
2022/12/25 08:49:13;;;;;;;29.65;18.75;;;8.40;99.90;;;;;;4937566;29;20055;-80
2022/12/25 08:51:38;;;;;;;31.60;18.95;;;8.40;99.90;;;;;;4912487;28;20091;-79
2022/12/25 08:54:04;;;;;;;32.38;18.08;;;8.40;99.90;;;;;;4937135;29;20059;-79
2022/12/25 08:56:30;;;;;;;35.55;19.35;;;8.50;99.90;;;;;;4936502;29;20057;-80
2022/12/25 08:58:55;;;;;;;36.72;19.75;;;8.50;99.90;;;;;;4921674;29;20399;-79
2022/12/25 09:01:21;;;;;;;37.85;19.60;;;8.40;99.90;;;;;;4922885;29;20043;-80
2022/12/25 09:03:47;;;;;;;33.42;18.85;;;8.40;99.90;;;;;;4956892;28;20087;-79
2022/12/25 09:06:14;;;;;;;32.67;18.92;;;8.40;99.90;;;;;;4936751;29;20050;-78
2022/12/25 09:08:41;;;;;;;32.22;18.05;;;8.50;99.90;;;;;;4949941;28;20067;-78
2022/12/25 09:11:10;;;;;;;33.03;17.70;;;8.50;99.90;;;;;;4930984;28;20047;-78
2022/12/25 09:13:35;;;;;;;31.35;17.38;;;8.50;99.90;;;;;;4924286;29;20075;-79
2022/12/25 09:16:10;;;;;;;31.27;16.80;;;8.50;99.90;;;;;;4921826;29;20082;-77
2022/12/25 09:18:36;;;;;;;30.35;17.35;;;8.50;99.90;;;;;;4936660;28;20142;-78
2022/12/25 09:21:05;;;;;;;29.70;16.25;;;8.60;99.90;;;;;;4924948;29;20535;-77
2022/12/25 09:23:32;;;;;;;26.40;16.52;;;8.60;99.90;;;;;;4903999;29;20048;-78
2022/12/25 09:25:59;;;;;;;28.50;15.52;;;8.70;99.90;;;;;;4939707;28;20082;-78
2022/12/25 09:28:25;;;;;;;25.83;15.43;;;8.70;99.90;;;;;;4920832;29;20051;-76
2022/12/25 09:30:51;;;;;;;27.35;14.95;;;8.80;99.90;;;;;;4922196;28;20047;-78
2022/12/25 09:33:19;;;;;;;27.77;14.35;;;8.80;99.90;;;;;;4922677;29;20047;-77
2022/12/25 09:35:52;;;;;;;29.08;15.38;;;8.80;99.90;;;;;;4948093;28;20051;-78
2022/12/25 09:38:18;;;;;;;27.15;14.43;;;8.90;99.90;;;;;;4925629;29;20051;-78
2022/12/25 09:40:44;;;;;;;28.73;15.75;;;8.90;99.90;;;;;;4939452;29;20058;-78
2022/12/25 09:43:15;;;;;;;24.88;13.90;;;8.90;99.90;;;;;;4952462;28;20122;-78
2022/12/25 09:45:42;;;;;;;23.85;14.70;;;9.00;99.90;;;;;;4932699;29;20378;-78
2022/12/25 09:48:12;;;;;;;27.67;14.77;;;9.00;99.90;;;;;;4933226;29;20062;-78
2022/12/25 09:51:03;;;;;;;23.77;14.40;;;9.00;99.90;;;;;;4936375;29;20485;-78
2022/12/25 09:53:44;;;;;;;26.35;14.13;;;9.10;99.90;;;;;;4948237;28;20440;-78
2022/12/25 09:56:16;;;;;;;22.45;13.48;;;9.10;99.90;;;;;;4929738;29;20059;-79
2022/12/25 09:58:42;;;;;;;26.57;13.50;;;9.10;99.90;;;;;;4937557;28;20483;-79
2022/12/25 10:01:17;;;;;;;25.35;14.20;;;9.10;99.90;;;;;;4927201;29;20055;-79
2022/12/25 10:03:57;;;;;;;23.08;13.27;;;9.20;99.90;;;;;;4938922;28;20039;-79
2022/12/25 10:06:51;;;;;;;23.02;13.10;;;9.20;99.90;;;;;;4921600;29;20047;-78
2022/12/25 10:09:36;;;;;;;26.13;13.25;;;9.30;99.90;;;;;;4938179;28;20086;-78
2022/12/25 10:12:27;;;;;;;23.33;13.05;;;9.30;99.90;;;;;;4940080;28;20058;-78
2022/12/25 10:15:05;;;;;;;21.88;12.68;;;9.30;99.90;;;;;;4926193;29;20059;-78
2022/12/25 10:17:43;;;;;;;23.08;12.90;;;9.40;99.90;;;;;;4932076;28;20079;-78
2022/12/25 10:20:19;;;;;;;23.00;12.52;;;9.30;99.90;;;;;;4938748;28;20055;-78
2022/12/25 10:22:50;;;;;;;23.33;13.10;;;9.40;99.90;;;;;;4922634;29;20058;-77
2022/12/25 10:25:21;;;;;;;20.65;13.32;;;9.30;99.90;;;;;;4936061;29;20054;-78
2022/12/25 10:28:16;;;;;;;27.40;14.93;;;9.30;99.90;;;;;;4921920;29;20538;-79
2022/12/25 10:30:43;;;;;;;24.35;14.02;;;9.30;99.90;;;;;;4924440;29;20047;-77
2022/12/25 10:33:13;;;;;;;27.17;14.43;;;10.20;99.90;;;;;;4935295;28;20059;-78
2022/12/25 10:35:39;;;;;;;23.92;13.70;;;9.20;99.90;;;;;;4918592;29;20054;-78
2022/12/25 10:38:10;;;;;;;26.52;14.80;;;9.30;99.90;;;;;;4922244;29;20095;-79
2022/12/25 10:41:01;;;;;;;24.23;13.97;;;9.20;99.90;;;;;;4922346;29;20142;-78
2022/12/25 10:43:41;;;;;;;27.83;14.65;;;9.20;99.90;;;;;;4920223;28;20062;-80
2022/12/25 10:46:11;;;;;;;23.75;14.65;;;9.20;99.90;;;;;;4921867;29;20077;-80
2022/12/25 10:48:46;;;;;;;24.65;13.55;;;9.20;99.90;;;;;;4914817;29;20043;-79
2022/12/25 10:51:11;;;;;;;25.05;15.20;;;9.20;99.90;;;;;;4935877;28;20048;-80
2022/12/25 10:53:42;;;;;;;24.05;14.75;;;9.20;99.90;;;;;;4921966;28;20052;-80
2022/12/25 10:56:18;;;;;;;24.27;14.90;;;9.20;99.90;;;;;;4924154;29;20098;-78
2022/12/25 10:58:44;;;;;;;23.55;13.57;;;9.20;99.90;;;;;;4903331;28;20051;-79
2022/12/25 11:01:10;;;;;;;25.35;14.00;;;9.30;99.90;;;;;;4934236;29;20048;-79
2022/12/25 11:03:43;;;;;;;23.25;14.95;;;9.20;99.90;;;;;;4937131;28;20043;-75
2022/12/25 11:06:28;;;;;;;24.73;13.80;;;9.30;99.90;;;;;;4920921;29;20419;-78
2022/12/25 11:09:01;;;;;;;25.35;13.98;;;9.30;99.90;;;;;;4920473;28;20058;-78
2022/12/25 11:11:28;;;;;;;23.02;12.88;;;9.40;99.90;;;;;;4935724;28;20464;-78
2022/12/25 11:13:58;;;;;;;23.48;14.02;;;9.30;99.90;;;;;;4934667;28;20432;-79
2022/12/25 11:16:36;;;;;;;21.40;12.43;;;9.30;99.90;;;;;;4933380;29;20052;-79
2022/12/25 11:19:18;;;;;;;19.65;11.68;;;9.40;99.90;;;;;;4937340;28;20048;-78
2022/12/25 11:21:50;;;;;;;21.17;13.00;;;9.40;99.90;;;;;;4920944;29;20510;-77
2022/12/25 11:24:21;;;;;;;22.55;12.25;;;9.40;99.90;;;;;;4920818;28;20174;-76
2022/12/25 11:26:50;;;;;;;23.08;13.00;;;9.40;99.90;;;;;;4937079;29;20062;-78
2022/12/25 11:29:47;;;;;;;22.15;12.50;;;9.50;99.90;;;;;;4936604;28;20460;-78
2022/12/25 11:32:33;;;;;;;21.15;12.27;;;9.50;99.90;;;;;;4930672;29;20352;-77
2022/12/25 11:35:01;;;;;;;20.08;12.98;;;9.50;99.90;;;;;;4938116;28;20391;-78
2022/12/25 11:37:40;;;;;;;22.65;12.63;;;9.50;99.90;;;;;;4918262;29;20086;-77
2022/12/25 11:40:14;;;;;;;20.08;12.85;;;9.50;99.90;;;;;;4934319;28;20110;-77
2022/12/25 11:42:46;;;;;;;19.95;12.48;;;9.50;99.90;;;;;;4937247;29;20159;-78
2022/12/25 11:45:19;;;;;;;21.70;12.93;;;9.50;99.90;;;;;;4921585;28;20055;-78
2022/12/25 11:48:02;;;;;;;24.15;12.90;;;9.50;99.90;;;;;;4934497;29;20122;-78
2022/12/25 11:50:40;;;;;;;20.38;12.30;;;9.60;99.90;;;;;;4922498;29;20044;-78
2022/12/25 11:53:14;;;;;;;22.63;12.35;;;9.60;99.90;;;;;;4932223;29;20416;-77
2022/12/25 11:55:53;;;;;;;22.00;13.02;;;9.60;99.90;;;;;;4921103;29;20102;-78
2022/12/25 11:58:21;;;;;;;22.52;13.25;;;9.60;99.90;;;;;;4934483;29;20047;-77
2022/12/25 12:00:50;;;;;;;21.45;12.85;;;9.60;99.90;;;;;;4933422;29;20058;-78
2022/12/25 12:03:49;;;;;;;21.75;13.13;;;9.60;99.90;;;;;;4933697;28;20075;-79
2022/12/25 12:06:24;;;;;;;22.30;13.00;;;9.60;99.90;;;;;;4914404;29;20055;-78
2022/12/25 12:09:13;;;;;;;24.88;13.93;;;9.50;99.90;;;;;;4934703;28;20115;-78
2022/12/25 12:11:51;;;;;;;20.13;12.68;;;9.60;99.90;;;;;;4927967;28;20087;-78
2022/12/25 12:14:42;;;;;;;21.17;12.32;;;9.60;99.90;;;;;;4942729;28;20085;-78
2022/12/25 12:17:13;;;;;;;19.58;12.15;;;9.60;99.90;;;;;;4933391;29;20047;-78
2022/12/25 12:19:41;;;;;;;21.38;12.77;;;9.60;99.90;;;;;;4932541;29;20477;-78
2022/12/25 12:22:18;;;;;;;22.48;12.98;;;9.60;99.90;;;;;;4935983;29;20043;-78
2022/12/25 12:24:49;;;;;;;21.40;12.90;;;9.60;99.90;;;;;;4937981;29;20300;-76
2022/12/25 12:27:18;;;;;;;19.85;12.45;;;9.60;99.90;;;;;;4935602;29;20173;-76
2022/12/25 12:29:48;;;;;;;18.63;11.95;;;9.60;99.90;;;;;;4935324;29;20070;-77
2022/12/25 12:32:31;;;;;;;20.38;11.73;;;9.60;99.90;;;;;;4949677;28;20051;-77
2022/12/25 12:34:57;;;;;;;18.27;10.20;;;9.60;99.90;;;;;;4947063;29;20055;-77
2022/12/25 12:37:28;;;;;;;16.25;9.20;;;9.70;99.90;;;;;;4923284;28;20150;-75
2022/12/25 12:39:54;;;;;;;15.05;9.55;;;9.70;99.90;;;;;;4940483;29;20492;-76
2022/12/25 12:42:25;;;;;;;18.38;10.68;;;9.60;99.90;;;;;;4940259;29;20611;-77
2022/12/25 12:44:54;;;;;;;20.35;9.73;;;9.60;99.90;;;;;;4924225;28;20055;-76
2022/12/25 12:47:39;;;;;;;17.83;10.13;;;9.60;99.90;;;;;;4939880;29;20066;-74
2022/12/25 12:50:22;;;;;;;16.35;10.35;;;9.60;99.90;;;;;;4924410;28;20051;-77
2022/12/25 12:52:48;;;;;;;16.77;10.38;;;9.60;99.90;;;;;;4948804;29;20043;-77
2022/12/25 12:55:13;;;;;;;19.33;10.15;;;9.50;99.90;;;;;;4939995;28;20047;-77
2022/12/25 12:57:40;;;;;;;14.48;10.13;;;9.50;99.90;;;;;;4943239;28;20753;-78
2022/12/25 13:00:18;;;;;;;20.08;11.38;;;9.50;99.90;;;;;;4941396;29;20122;-78
2022/12/25 13:03:01;;;;;;;17.17;10.93;;;9.40;99.90;;;;;;4926752;29;20059;-77
2022/12/25 13:05:44;;;;;;;17.98;11.38;;;9.40;99.90;;;;;;4936563;28;20058;-78
2022/12/25 13:08:27;;;;;;;20.90;11.52;;;9.40;99.90;;;;;;4932207;29;20061;-78
2022/12/25 13:11:07;;;;;;;19.45;11.63;;;9.30;99.90;;;;;;4948204;29;20400;-78
2022/12/25 13:13:35;;;;;;;20.27;11.52;;;9.30;99.90;;;;;;4930569;28;20058;-78
2022/12/25 13:16:03;;;;;;;19.13;11.38;;;9.30;99.90;;;;;;4945451;29;20053;-77
2022/12/25 13:18:30;;;;;;;19.77;11.50;;;9.30;99.90;;;;;;4938837;28;20061;-78
2022/12/25 13:21:00;;;;;;;22.13;11.27;;;9.20;99.90;;;;;;4940112;29;20054;-78
2022/12/25 13:23:31;;;;;;;18.92;11.30;;;9.30;99.90;;;;;;4939158;28;20419;-76
2022/12/25 13:26:17;;;;;;;17.33;10.80;;;9.30;99.90;;;;;;4939373;28;20415;-78
2022/12/25 13:28:45;;;;;;;19.05;11.75;;;9.30;99.90;;;;;;4938687;28;20354;-77
2022/12/25 13:31:21;;;;;;;19.77;11.65;;;9.30;99.90;;;;;;4923517;28;20384;-78
2022/12/25 13:33:59;;;;;;;18.65;11.65;;;9.30;99.90;;;;;;4939175;29;20062;-76
2022/12/25 13:36:28;;;;;;;18.05;10.50;;;9.40;99.90;;;;;;4935253;29;20048;-75
2022/12/25 13:38:56;;;;;;;18.08;11.27;;;9.40;99.90;;;;;;4948790;28;20079;-77
2022/12/25 13:44:23;;;;;;;19.67;11.35;;;9.30;99.90;;;;;;4934013;29;20504;-77
2022/12/25 13:46:49;;;;;;;19.17;12.77;;;9.30;99.90;;;;;;4935634;28;20141;-76
2022/12/25 13:49:23;;;;;;;18.00;12.95;;;9.30;99.90;;;;;;4938828;29;20091;-77
2022/12/25 13:51:49;;;;;;;22.20;13.32;;;9.20;99.90;;;;;;4951823;28;20047;-76
2022/12/25 13:54:17;;;;;;;20.98;13.20;;;9.20;99.90;;;;;;4946964;29;20428;-77
2022/12/25 13:56:52;;;;;;;20.55;13.55;;;9.20;99.90;;;;;;4948337;29;20399;-75
2022/12/25 13:59:21;;;;;;;21.55;14.07;;;9.20;99.90;;;;;;4933651;29;20448;-76
2022/12/25 14:01:48;;;;;;;21.58;14.18;;;9.20;99.90;;;;;;4931595;29;20055;-75
2022/12/25 14:04:21;;;;;;;21.85;14.10;;;9.10;99.90;;;;;;4947759;28;20403;-75
2022/12/25 14:06:47;;;;;;;24.00;14.60;;;9.10;99.90;;;;;;4952904;28;20051;-75
2022/12/25 14:09:13;;;;;;;22.30;14.23;;;9.10;99.90;;;;;;4950148;29;20047;-75
2022/12/25 14:11:47;;;;;;;22.58;15.45;;;9.10;99.90;;;;;;4938259;28;20154;-74
2022/12/25 14:14:23;;;;;;;22.25;15.02;;;9.10;99.90;;;;;;4938675;29;20047;-74
2022/12/25 14:16:52;;;;;;;24.17;15.50;;;9.10;99.90;;;;;;4923215;29;20051;-74
2022/12/25 14:19:35;;;;;;;20.27;15.38;;;9.10;99.90;;;;;;4937738;29;20053;-74
2022/12/25 14:22:19;;;;;;;21.95;15.60;;;9.10;99.90;;;;;;4921021;29;20043;-74
2022/12/25 14:24:46;;;;;;;22.25;15.63;;;9.10;99.90;;;;;;4928607;29;20125;-73
2022/12/25 14:27:30;;;;;;;24.08;16.23;;;9.10;99.90;;;;;;4938200;29;20087;-73
2022/12/25 14:29:59;;;;;;;24.00;16.58;;;9.00;99.90;;;;;;4945158;28;20527;-75
2022/12/25 14:32:28;;;;;;;25.15;16.67;;;9.00;99.90;;;;;;4922588;28;20055;-75